sensor_id;sensor_type;location;lat;lon;timestamp;temperature;humidity
31725;DHT22;18306;40.960;14.836;2022-12-10T00:01:08;17.20;99.90
31725;DHT22;18306;40.960;14.836;2022-12-10T00:03:35;17.10;99.90
31725;DHT22;18306;40.960;14.836;2022-12-10T00:06:05;17.10;99.90
31725;DHT22;18306;40.960;14.836;2022-12-10T00:08:34;17.00;99.90
31725;DHT22;18306;40.960;14.836;2022-12-10T00:11:05;17.00;99.90
31725;DHT22;18306;40.960;14.836;2022-12-10T00:13:33;16.90;99.90
31725;DHT22;18306;40.960;14.836;2022-12-10T00:16:02;17.00;99.90
31725;DHT22;18306;40.960;14.836;2022-12-10T00:18:29;17.10;99.90
31725;DHT22;18306;40.960;14.836;2022-12-10T00:20:56;17.20;99.90
31725;DHT22;18306;40.960;14.836;2022-12-10T00:23:23;17.30;99.90
31725;DHT22;18306;40.960;14.836;2022-12-10T00:25:50;17.30;99.90
31725;DHT22;18306;40.960;14.836;2022-12-10T00:28:17;17.20;99.90
31725;DHT22;18306;40.960;14.836;2022-12-10T00:30:44;17.20;99.90
31725;DHT22;18306;40.960;14.836;2022-12-10T00:33:12;17.40;99.90
31725;DHT22;18306;40.960;14.836;2022-12-10T00:35:39;17.50;99.90
31725;DHT22;18306;40.960;14.836;2022-12-10T00:38:06;17.50;99.90
31725;DHT22;18306;40.960;14.836;2022-12-10T00:40:33;17.50;99.90
31725;DHT22;18306;40.960;14.836;2022-12-10T00:43:00;17.50;99.90
31725;DHT22;18306;40.960;14.836;2022-12-10T00:45:27;17.60;99.90
31725;DHT22;18306;40.960;14.836;2022-12-10T00:47:54;17.70;99.90
31725;DHT22;18306;40.960;14.836;2022-12-10T00:50:21;17.50;99.90
31725;DHT22;18306;40.960;14.836;2022-12-10T00:52:48;17.10;99.90
31725;DHT22;18306;40.960;14.836;2022-12-10T00:55:15;17.10;99.90
31725;DHT22;18306;40.960;14.836;2022-12-10T00:57:42;17.00;99.90
31725;DHT22;18306;40.960;14.836;2022-12-10T01:00:10;17.00;99.90
31725;DHT22;18306;40.960;14.836;2022-12-10T01:02:37;17.20;99.90
31725;DHT22;18306;40.960;14.836;2022-12-10T01:05:04;17.10;99.90
31725;DHT22;18306;40.960;14.836;2022-12-10T01:07:31;17.10;99.90
31725;DHT22;18306;40.960;14.836;2022-12-10T01:09:58;17.20;99.90
31725;DHT22;18306;40.960;14.836;2022-12-10T01:12:25;17.30;99.90
31725;DHT22;18306;40.960;14.836;2022-12-10T01:14:52;17.20;99.90
31725;DHT22;18306;40.960;14.836;2022-12-10T01:17:19;17.30;99.90
31725;DHT22;18306;40.960;14.836;2022-12-10T01:19:48;17.30;99.90
31725;DHT22;18306;40.960;14.836;2022-12-10T01:22:14;17.30;99.90
31725;DHT22;18306;40.960;14.836;2022-12-10T01:24:42;17.30;99.90
31725;DHT22;18306;40.960;14.836;2022-12-10T01:27:09;17.20;99.90
31725;DHT22;18306;40.960;14.836;2022-12-10T01:29:36;17.20;99.90
31725;DHT22;18306;40.960;14.836;2022-12-10T01:32:03;17.20;99.90
31725;DHT22;18306;40.960;14.836;2022-12-10T01:34:30;17.40;99.90
31725;DHT22;18306;40.960;14.836;2022-12-10T01:36:57;17.30;99.90
31725;DHT22;18306;40.960;14.836;2022-12-10T01:39:32;17.40;99.90
31725;DHT22;18306;40.960;14.836;2022-12-10T01:42:00;17.40;99.90
31725;DHT22;18306;40.960;14.836;2022-12-10T01:46:59;17.20;99.90
31725;DHT22;18306;40.960;14.836;2022-12-10T01:49:37;17.40;99.90
31725;DHT22;18306;40.960;14.836;2022-12-10T01:52:14;17.50;99.90
31725;DHT22;18306;40.960;14.836;2022-12-10T01:54:48;17.40;99.90
31725;DHT22;18306;40.960;14.836;2022-12-10T01:57:25;17.60;99.90
31725;DHT22;18306;40.960;14.836;2022-12-10T02:00:04;17.50;99.90
31725;DHT22;18306;40.960;14.836;2022-12-10T02:03:10;17.40;99.90
31725;DHT22;18306;40.960;14.836;2022-12-10T02:05:57;17.60;99.90
31725;DHT22;18306;40.960;14.836;2022-12-10T02:08:44;17.60;99.90
31725;DHT22;18306;40.960;14.836;2022-12-10T02:11:42;17.40;99.90
31725;DHT22;18306;40.960;14.836;2022-12-10T02:14:40;17.50;99.90
31725;DHT22;18306;40.960;14.836;2022-12-10T02:17:17;17.40;99.90
31725;DHT22;18306;40.960;14.836;2022-12-10T02:20:06;17.50;99.90
31725;DHT22;18306;40.960;14.836;2022-12-10T02:22:42;17.60;99.90
31725;DHT22;18306;40.960;14.836;2022-12-10T02:25:13;17.60;99.90
31725;DHT22;18306;40.960;14.836;2022-12-10T02:28:03;17.70;99.90
31725;DHT22;18306;40.960;14.836;2022-12-10T02:30:33;17.40;99.90
31725;DHT22;18306;40.960;14.836;2022-12-10T02:33:03;17.20;99.90
31725;DHT22;18306;40.960;14.836;2022-12-10T02:35:33;17.30;99.90
31725;DHT22;18306;40.960;14.836;2022-12-10T02:38:17;17.30;99.90
31725;DHT22;18306;40.960;14.836;2022-12-10T02:40:48;17.40;99.90
31725;DHT22;18306;40.960;14.836;2022-12-10T02:43:17;17.20;99.90
31725;DHT22;18306;40.960;14.836;2022-12-10T02:45:46;17.10;99.90
31725;DHT22;18306;40.960;14.836;2022-12-10T02:48:14;17.10;99.90
31725;DHT22;18306;40.960;14.836;2022-12-10T02:50:43;17.20;99.90
31725;DHT22;18306;40.960;14.836;2022-12-10T02:53:10;17.10;99.90
31725;DHT22;18306;40.960;14.836;2022-12-10T03:04:01;17.40;99.90
31725;DHT22;18306;40.960;14.836;2022-12-10T03:06:39;17.60;99.90
31725;DHT22;18306;40.960;14.836;2022-12-10T03:09:17;17.60;99.90
31725;DHT22;18306;40.960;14.836;2022-12-10T03:11:47;17.40;99.90
31725;DHT22;18306;40.960;14.836;2022-12-10T03:14:28;17.40;99.90
31725;DHT22;18306;40.960;14.836;2022-12-10T03:17:01;17.40;99.90
31725;DHT22;18306;40.960;14.836;2022-12-10T03:19:37;17.40;99.90
31725;DHT22;18306;40.960;14.836;2022-12-10T03:22:06;17.40;99.90
31725;DHT22;18306;40.960;14.836;2022-12-10T03:24:35;17.40;99.90
31725;DHT22;18306;40.960;14.836;2022-12-10T03:27:04;17.30;99.90
31725;DHT22;18306;40.960;14.836;2022-12-10T03:29:40;17.50;99.90
31725;DHT22;18306;40.960;14.836;2022-12-10T03:32:09;17.30;99.90
31725;DHT22;18306;40.960;14.836;2022-12-10T03:34:37;17.40;99.90
31725;DHT22;18306;40.960;14.836;2022-12-10T03:37:05;17.30;99.90
31725;DHT22;18306;40.960;14.836;2022-12-10T03:39:33;17.40;99.90
31725;DHT22;18306;40.960;14.836;2022-12-10T03:42:00;17.50;99.90
31725;DHT22;18306;40.960;14.836;2022-12-10T03:44:29;17.40;99.90
31725;DHT22;18306;40.960;14.836;2022-12-10T03:46:57;17.30;99.90
31725;DHT22;18306;40.960;14.836;2022-12-10T03:49:24;17.10;99.90
31725;DHT22;18306;40.960;14.836;2022-12-10T03:51:52;17.10;99.90
31725;DHT22;18306;40.960;14.836;2022-12-10T03:54:19;17.20;99.90
31725;DHT22;18306;40.960;14.836;2022-12-10T03:56:46;17.20;99.90
31725;DHT22;18306;40.960;14.836;2022-12-10T03:59:13;17.20;99.90
31725;DHT22;18306;40.960;14.836;2022-12-10T04:01:41;17.20;99.90
31725;DHT22;18306;40.960;14.836;2022-12-10T04:04:08;17.10;99.90
31725;DHT22;18306;40.960;14.836;2022-12-10T04:06:38;16.90;99.90
31725;DHT22;18306;40.960;14.836;2022-12-10T04:09:06;17.00;99.90
31725;DHT22;18306;40.960;14.836;2022-12-10T04:11:33;17.10;99.90
31725;DHT22;18306;40.960;14.836;2022-12-10T04:14:00;17.20;99.90
31725;DHT22;18306;40.960;14.836;2022-12-10T04:16:46;17.30;99.90
31725;DHT22;18306;40.960;14.836;2022-12-10T04:19:15;17.40;99.90
31725;DHT22;18306;40.960;14.836;2022-12-10T04:21:43;17.40;99.90
31725;DHT22;18306;40.960;14.836;2022-12-10T04:24:31;17.40;99.90
31725;DHT22;18306;40.960;14.836;2022-12-10T04:27:24;17.70;99.90
31725;DHT22;18306;40.960;14.836;2022-12-10T04:29:53;17.70;99.90
31725;DHT22;18306;40.960;14.836;2022-12-10T04:32:21;17.70;99.90
31725;DHT22;18306;40.960;14.836;2022-12-10T04:34:49;17.50;99.90
31725;DHT22;18306;40.960;14.836;2022-12-10T04:37:17;17.30;99.90
31725;DHT22;18306;40.960;14.836;2022-12-10T04:39:44;17.10;99.90
31725;DHT22;18306;40.960;14.836;2022-12-10T04:42:11;17.20;99.90
31725;DHT22;18306;40.960;14.836;2022-12-10T04:44:38;17.30;99.90
31725;DHT22;18306;40.960;14.836;2022-12-10T04:47:07;17.30;99.90
31725;DHT22;18306;40.960;14.836;2022-12-10T04:49:35;17.40;99.90
31725;DHT22;18306;40.960;14.836;2022-12-10T04:52:03;17.50;99.90
31725;DHT22;18306;40.960;14.836;2022-12-10T04:54:30;17.40;99.90
31725;DHT22;18306;40.960;14.836;2022-12-10T04:56:58;17.40;99.90
31725;DHT22;18306;40.960;14.836;2022-12-10T04:59:25;17.30;99.90
31725;DHT22;18306;40.960;14.836;2022-12-10T05:01:53;17.40;99.90
31725;DHT22;18306;40.960;14.836;2022-12-10T05:04:20;17.50;99.90
31725;DHT22;18306;40.960;14.836;2022-12-10T05:06:48;17.60;99.90
31725;DHT22;18306;40.960;14.836;2022-12-10T05:09:16;17.80;99.90
31725;DHT22;18306;40.960;14.836;2022-12-10T05:11:43;17.70;99.90
31725;DHT22;18306;40.960;14.836;2022-12-10T05:14:15;17.90;99.90
31725;DHT22;18306;40.960;14.836;2022-12-10T05:16:42;18.00;99.90
31725;DHT22;18306;40.960;14.836;2022-12-10T05:19:10;18.10;99.90
31725;DHT22;18306;40.960;14.836;2022-12-10T05:21:37;18.10;99.90
31725;DHT22;18306;40.960;14.836;2022-12-10T05:24:22;17.90;99.90
31725;DHT22;18306;40.960;14.836;2022-12-10T05:26:49;17.70;99.90
31725;DHT22;18306;40.960;14.836;2022-12-10T05:29:18;17.70;99.90
31725;DHT22;18306;40.960;14.836;2022-12-10T05:31:46;17.60;99.90
31725;DHT22;18306;40.960;14.836;2022-12-10T05:34:13;17.50;99.90
31725;DHT22;18306;40.960;14.836;2022-12-10T05:36:40;17.40;99.90
31725;DHT22;18306;40.960;14.836;2022-12-10T05:39:07;17.50;99.90
31725;DHT22;18306;40.960;14.836;2022-12-10T05:41:37;17.60;99.90
31725;DHT22;18306;40.960;14.836;2022-12-10T05:44:05;17.40;99.90
31725;DHT22;18306;40.960;14.836;2022-12-10T05:46:34;17.50;99.90
31725;DHT22;18306;40.960;14.836;2022-12-10T05:49:03;17.50;99.90
31725;DHT22;18306;40.960;14.836;2022-12-10T05:51:32;17.60;99.90
31725;DHT22;18306;40.960;14.836;2022-12-10T05:54:00;17.50;99.90
31725;DHT22;18306;40.960;14.836;2022-12-10T05:56:28;17.40;99.90
31725;DHT22;18306;40.960;14.836;2022-12-10T05:58:59;17.20;99.90
31725;DHT22;18306;40.960;14.836;2022-12-10T06:01:29;17.30;99.90
31725;DHT22;18306;40.960;14.836;2022-12-10T06:03:58;17.20;99.90
31725;DHT22;18306;40.960;14.836;2022-12-10T06:06:28;17.30;99.90
31725;DHT22;18306;40.960;14.836;2022-12-10T06:08:56;17.40;99.90
31725;DHT22;18306;40.960;14.836;2022-12-10T06:11:26;17.50;99.90
31725;DHT22;18306;40.960;14.836;2022-12-10T06:13:58;17.50;99.90
31725;DHT22;18306;40.960;14.836;2022-12-10T06:16:26;17.60;99.90
31725;DHT22;18306;40.960;14.836;2022-12-10T06:18:55;17.60;99.90
31725;DHT22;18306;40.960;14.836;2022-12-10T06:21:22;17.50;99.90
31725;DHT22;18306;40.960;14.836;2022-12-10T06:23:50;17.60;99.90
31725;DHT22;18306;40.960;14.836;2022-12-10T06:26:23;17.80;99.90
31725;DHT22;18306;40.960;14.836;2022-12-10T06:28:51;18.00;99.90
31725;DHT22;18306;40.960;14.836;2022-12-10T06:31:18;18.10;99.90
31725;DHT22;18306;40.960;14.836;2022-12-10T06:33:46;18.20;99.90
31725;DHT22;18306;40.960;14.836;2022-12-10T06:36:14;18.20;99.90
31725;DHT22;18306;40.960;14.836;2022-12-10T06:38:42;17.90;99.90
31725;DHT22;18306;40.960;14.836;2022-12-10T06:41:12;18.20;99.90
31725;DHT22;18306;40.960;14.836;2022-12-10T06:43:39;18.30;99.90
31725;DHT22;18306;40.960;14.836;2022-12-10T06:46:07;18.30;99.90
31725;DHT22;18306;40.960;14.836;2022-12-10T06:48:35;18.20;99.90
31725;DHT22;18306;40.960;14.836;2022-12-10T06:51:03;18.00;99.90
31725;DHT22;18306;40.960;14.836;2022-12-10T06:53:32;18.00;99.90
31725;DHT22;18306;40.960;14.836;2022-12-10T06:56:00;18.10;99.90
31725;DHT22;18306;40.960;14.836;2022-12-10T06:58:28;18.10;99.90
31725;DHT22;18306;40.960;14.836;2022-12-10T07:01:06;18.00;99.90
31725;DHT22;18306;40.960;14.836;2022-12-10T07:03:34;18.10;99.90
31725;DHT22;18306;40.960;14.836;2022-12-10T07:06:02;18.10;99.90
31725;DHT22;18306;40.960;14.836;2022-12-10T07:08:30;18.20;99.90
31725;DHT22;18306;40.960;14.836;2022-12-10T07:10:57;18.30;99.90
31725;DHT22;18306;40.960;14.836;2022-12-10T07:13:36;18.30;99.90
31725;DHT22;18306;40.960;14.836;2022-12-10T07:16:14;18.40;99.90
31725;DHT22;18306;40.960;14.836;2022-12-10T07:18:41;18.30;99.90
31725;DHT22;18306;40.960;14.836;2022-12-10T07:21:24;18.30;99.90
31725;DHT22;18306;40.960;14.836;2022-12-10T07:23:52;18.40;99.90
31725;DHT22;18306;40.960;14.836;2022-12-10T07:26:27;18.20;99.90
31725;DHT22;18306;40.960;14.836;2022-12-10T07:28:54;18.20;99.90
31725;DHT22;18306;40.960;14.836;2022-12-10T07:31:23;17.90;99.90
31725;DHT22;18306;40.960;14.836;2022-12-10T07:33:53;17.80;99.90
31725;DHT22;18306;40.960;14.836;2022-12-10T07:36:22;17.90;99.90
31725;DHT22;18306;40.960;14.836;2022-12-10T07:38:52;18.00;99.90
31725;DHT22;18306;40.960;14.836;2022-12-10T07:41:22;18.10;99.90
31725;DHT22;18306;40.960;14.836;2022-12-10T07:43:50;18.30;99.90
31725;DHT22;18306;40.960;14.836;2022-12-10T07:46:24;18.50;99.90
31725;DHT22;18306;40.960;14.836;2022-12-10T07:48:53;18.50;99.90
31725;DHT22;18306;40.960;14.836;2022-12-10T07:51:26;18.20;99.90
31725;DHT22;18306;40.960;14.836;2022-12-10T07:54:03;18.20;99.90
31725;DHT22;18306;40.960;14.836;2022-12-10T07:56:30;18.50;99.90
31725;DHT22;18306;40.960;14.836;2022-12-10T07:58:58;18.50;99.90
31725;DHT22;18306;40.960;14.836;2022-12-10T08:01:26;18.30;99.90
31725;DHT22;18306;40.960;14.836;2022-12-10T08:03:55;18.10;99.90
31725;DHT22;18306;40.960;14.836;2022-12-10T08:06:24;18.20;99.90
31725;DHT22;18306;40.960;14.836;2022-12-10T08:08:54;18.40;99.90
31725;DHT22;18306;40.960;14.836;2022-12-10T08:11:24;18.50;99.90
31725;DHT22;18306;40.960;14.836;2022-12-10T08:13:53;18.50;99.90
31725;DHT22;18306;40.960;14.836;2022-12-10T08:16:22;18.70;99.90
31725;DHT22;18306;40.960;14.836;2022-12-10T08:19:00;18.90;99.90
31725;DHT22;18306;40.960;14.836;2022-12-10T08:21:29;19.10;99.90
31725;DHT22;18306;40.960;14.836;2022-12-10T08:23:58;19.10;99.90
31725;DHT22;18306;40.960;14.836;2022-12-10T08:26:30;19.00;99.90
31725;DHT22;18306;40.960;14.836;2022-12-10T08:29:06;19.20;99.90
31725;DHT22;18306;40.960;14.836;2022-12-10T08:31:34;19.00;99.90
31725;DHT22;18306;40.960;14.836;2022-12-10T08:34:01;19.10;99.90
31725;DHT22;18306;40.960;14.836;2022-12-10T08:36:28;19.00;99.90
31725;DHT22;18306;40.960;14.836;2022-12-10T08:38:56;18.80;99.90
31725;DHT22;18306;40.960;14.836;2022-12-10T08:41:23;18.70;99.90
31725;DHT22;18306;40.960;14.836;2022-12-10T08:43:51;18.60;99.90
31725;DHT22;18306;40.960;14.836;2022-12-10T08:46:21;18.50;99.90
31725;DHT22;18306;40.960;14.836;2022-12-10T08:48:49;18.30;99.90
31725;DHT22;18306;40.960;14.836;2022-12-10T08:51:18;18.10;99.90
31725;DHT22;18306;40.960;14.836;2022-12-10T08:53:45;18.10;99.90
31725;DHT22;18306;40.960;14.836;2022-12-10T08:56:13;18.20;99.90
31725;DHT22;18306;40.960;14.836;2022-12-10T08:58:40;18.50;99.90
31725;DHT22;18306;40.960;14.836;2022-12-10T09:01:14;18.50;99.90
31725;DHT22;18306;40.960;14.836;2022-12-10T09:03:41;18.50;99.90
31725;DHT22;18306;40.960;14.836;2022-12-10T09:06:13;18.70;99.90
31725;DHT22;18306;40.960;14.836;2022-12-10T09:08:41;18.70;99.90
31725;DHT22;18306;40.960;14.836;2022-12-10T09:11:23;18.80;99.90
31725;DHT22;18306;40.960;14.836;2022-12-10T09:13:50;18.80;99.90
31725;DHT22;18306;40.960;14.836;2022-12-10T09:16:18;18.70;99.90
31725;DHT22;18306;40.960;14.836;2022-12-10T09:18:45;18.70;99.90
31725;DHT22;18306;40.960;14.836;2022-12-10T09:21:16;18.70;99.90
31725;DHT22;18306;40.960;14.836;2022-12-10T09:23:43;18.50;99.90
31725;DHT22;18306;40.960;14.836;2022-12-10T09:26:13;18.40;99.90
31725;DHT22;18306;40.960;14.836;2022-12-10T09:28:40;18.50;99.90
31725;DHT22;18306;40.960;14.836;2022-12-10T09:31:08;18.60;99.90
31725;DHT22;18306;40.960;14.836;2022-12-10T09:33:34;18.50;99.90
31725;DHT22;18306;40.960;14.836;2022-12-10T09:36:07;18.60;99.90
31725;DHT22;18306;40.960;14.836;2022-12-10T09:38:36;18.60;99.90
31725;DHT22;18306;40.960;14.836;2022-12-10T09:47:07;18.70;99.90
31725;DHT22;18306;40.960;14.836;2022-12-10T09:49:48;18.50;99.90
31725;DHT22;18306;40.960;14.836;2022-12-10T09:52:23;18.30;99.90
31725;DHT22;18306;40.960;14.836;2022-12-10T09:57:31;18.10;99.90
31725;DHT22;18306;40.960;14.836;2022-12-10T10:00:10;18.10;99.90
31725;DHT22;18306;40.960;14.836;2022-12-10T10:02:42;17.80;99.90
31725;DHT22;18306;40.960;14.836;2022-12-10T10:05:17;17.80;99.90
31725;DHT22;18306;40.960;14.836;2022-12-10T10:07:50;17.90;99.90
31725;DHT22;18306;40.960;14.836;2022-12-10T10:10:28;18.00;99.90
31725;DHT22;18306;40.960;14.836;2022-12-10T10:15:39;17.80;99.90
31725;DHT22;18306;40.960;14.836;2022-12-10T10:21:28;17.90;99.90
31725;DHT22;18306;40.960;14.836;2022-12-10T10:23:57;17.90;99.90
31725;DHT22;18306;40.960;14.836;2022-12-10T10:26:25;17.90;99.90
31725;DHT22;18306;40.960;14.836;2022-12-10T10:28:59;17.90;99.90
31725;DHT22;18306;40.960;14.836;2022-12-10T10:31:30;17.80;99.90
31725;DHT22;18306;40.960;14.836;2022-12-10T10:34:01;17.80;99.90
31725;DHT22;18306;40.960;14.836;2022-12-10T10:36:33;17.80;99.90
31725;DHT22;18306;40.960;14.836;2022-12-10T10:39:26;17.70;99.90
31725;DHT22;18306;40.960;14.836;2022-12-10T10:41:56;17.70;99.90
31725;DHT22;18306;40.960;14.836;2022-12-10T10:44:26;17.80;99.90
31725;DHT22;18306;40.960;14.836;2022-12-10T10:46:55;17.70;99.90
31725;DHT22;18306;40.960;14.836;2022-12-10T10:49:25;17.70;99.90
31725;DHT22;18306;40.960;14.836;2022-12-10T10:51:59;17.60;99.90
31725;DHT22;18306;40.960;14.836;2022-12-10T10:57:20;17.60;99.90
31725;DHT22;18306;40.960;14.836;2022-12-10T10:59:48;17.40;99.90
31725;DHT22;18306;40.960;14.836;2022-12-10T11:02:33;17.60;99.90
31725;DHT22;18306;40.960;14.836;2022-12-10T11:05:21;17.70;99.90
31725;DHT22;18306;40.960;14.836;2022-12-10T11:08:04;17.60;99.90
31725;DHT22;18306;40.960;14.836;2022-12-10T11:10:32;17.60;99.90
31725;DHT22;18306;40.960;14.836;2022-12-10T11:13:04;17.70;99.90
31725;DHT22;18306;40.960;14.836;2022-12-10T11:15:37;17.80;99.90
31725;DHT22;18306;40.960;14.836;2022-12-10T11:18:39;17.70;99.90
31725;DHT22;18306;40.960;14.836;2022-12-10T11:23:45;17.70;99.90
31725;DHT22;18306;40.960;14.836;2022-12-10T11:26:38;17.80;99.90
31725;DHT22;18306;40.960;14.836;2022-12-10T11:34:30;18.00;99.90
31725;DHT22;18306;40.960;14.836;2022-12-10T11:40:10;17.60;99.90
31725;DHT22;18306;40.960;14.836;2022-12-10T11:43:01;17.60;99.90
31725;DHT22;18306;40.960;14.836;2022-12-10T11:51:35;17.50;99.90
31725;DHT22;18306;40.960;14.836;2022-12-10T11:57:17;17.50;99.90
31725;DHT22;18306;40.960;14.836;2022-12-10T12:02:55;17.50;99.90
31725;DHT22;18306;40.960;14.836;2022-12-10T12:08:21;17.50;99.90
31725;DHT22;18306;40.960;14.836;2022-12-10T12:11:18;17.50;99.90
31725;DHT22;18306;40.960;14.836;2022-12-10T12:19:49;17.40;99.90
31725;DHT22;18306;40.960;14.836;2022-12-10T12:22:34;17.20;99.90
31725;DHT22;18306;40.960;14.836;2022-12-10T12:25:15;17.20;99.90
31725;DHT22;18306;40.960;14.836;2022-12-10T12:27:50;17.20;99.90
31725;DHT22;18306;40.960;14.836;2022-12-10T12:30:21;17.30;99.90
31725;DHT22;18306;40.960;14.836;2022-12-10T12:33:04;17.40;99.90
31725;DHT22;18306;40.960;14.836;2022-12-10T12:38:29;17.30;99.90
31725;DHT22;18306;40.960;14.836;2022-12-10T12:46:04;17.30;99.90
31725;DHT22;18306;40.960;14.836;2022-12-10T12:48:58;17.10;99.90
31725;DHT22;18306;40.960;14.836;2022-12-10T12:51:45;16.90;99.90
31725;DHT22;18306;40.960;14.836;2022-12-10T12:54:16;16.80;99.90
31725;DHT22;18306;40.960;14.836;2022-12-10T12:57:07;16.70;99.90
31725;DHT22;18306;40.960;14.836;2022-12-10T13:00:04;16.70;99.90
31725;DHT22;18306;40.960;14.836;2022-12-10T13:05:32;16.90;99.90
31725;DHT22;18306;40.960;14.836;2022-12-10T13:14:02;16.90;99.90
31725;DHT22;18306;40.960;14.836;2022-12-10T13:30:32;17.40;99.90
31725;DHT22;18306;40.960;14.836;2022-12-10T13:43:37;16.50;99.90
31725;DHT22;18306;40.960;14.836;2022-12-10T13:46:31;16.50;99.90
31725;DHT22;18306;40.960;14.836;2022-12-10T13:49:04;16.40;99.90
31725;DHT22;18306;40.960;14.836;2022-12-10T13:51:58;16.40;99.90
31725;DHT22;18306;40.960;14.836;2022-12-10T13:54:58;16.40;99.90
31725;DHT22;18306;40.960;14.836;2022-12-10T14:00:21;16.40;99.90
31725;DHT22;18306;40.960;14.836;2022-12-10T14:03:21;16.40;99.90
31725;DHT22;18306;40.960;14.836;2022-12-10T14:06:01;16.50;99.90
31725;DHT22;18306;40.960;14.836;2022-12-10T14:08:37;16.40;99.90
31725;DHT22;18306;40.960;14.836;2022-12-10T14:11:17;16.30;99.90
31725;DHT22;18306;40.960;14.836;2022-12-10T14:13:53;16.30;99.90
31725;DHT22;18306;40.960;14.836;2022-12-10T14:16:24;16.30;99.90
31725;DHT22;18306;40.960;14.836;2022-12-10T14:18:59;16.30;99.90
31725;DHT22;18306;40.960;14.836;2022-12-10T14:21:34;16.30;99.90
31725;DHT22;18306;40.960;14.836;2022-12-10T14:24:02;16.20;99.90
31725;DHT22;18306;40.960;14.836;2022-12-10T14:26:33;16.30;99.90
31725;DHT22;18306;40.960;14.836;2022-12-10T14:29:17;16.40;99.90
31725;DHT22;18306;40.960;14.836;2022-12-10T14:31:48;16.30;99.90
31725;DHT22;18306;40.960;14.836;2022-12-10T14:34:18;16.40;99.90
31725;DHT22;18306;40.960;14.836;2022-12-10T14:36:49;16.40;99.90
31725;DHT22;18306;40.960;14.836;2022-12-10T14:39:32;16.40;99.90
31725;DHT22;18306;40.960;14.836;2022-12-10T14:42:05;16.20;99.90
31725;DHT22;18306;40.960;14.836;2022-12-10T14:44:37;16.10;99.90
31725;DHT22;18306;40.960;14.836;2022-12-10T14:47:15;16.10;99.90
31725;DHT22;18306;40.960;14.836;2022-12-10T14:49:50;16.20;99.90
31725;DHT22;18306;40.960;14.836;2022-12-10T14:52:33;16.20;99.90
31725;DHT22;18306;40.960;14.836;2022-12-10T14:55:06;16.20;99.90
31725;DHT22;18306;40.960;14.836;2022-12-10T14:57:40;16.10;99.90
31725;DHT22;18306;40.960;14.836;2022-12-10T15:00:21;15.90;99.90
31725;DHT22;18306;40.960;14.836;2022-12-10T15:02:55;15.80;99.90
31725;DHT22;18306;40.960;14.836;2022-12-10T15:05:31;15.80;99.90
31725;DHT22;18306;40.960;14.836;2022-12-10T15:08:07;15.60;99.90
31725;DHT22;18306;40.960;14.836;2022-12-10T15:10:37;15.70;99.90
31725;DHT22;18306;40.960;14.836;2022-12-10T15:13:07;15.60;99.90
31725;DHT22;18306;40.960;14.836;2022-12-10T15:15:41;15.60;99.90
31725;DHT22;18306;40.960;14.836;2022-12-10T15:18:16;15.50;99.90
31725;DHT22;18306;40.960;14.836;2022-12-10T15:20:49;15.50;99.90
31725;DHT22;18306;40.960;14.836;2022-12-10T15:25:58;15.60;99.90
31725;DHT22;18306;40.960;14.836;2022-12-10T15:34:00;15.50;99.90
31725;DHT22;18306;40.960;14.836;2022-12-10T15:36:33;15.50;99.90
31725;DHT22;18306;40.960;14.836;2022-12-10T15:39:13;15.50;99.90
31725;DHT22;18306;40.960;14.836;2022-12-10T15:41:57;15.70;99.90
31725;DHT22;18306;40.960;14.836;2022-12-10T15:47:23;15.80;99.90
31725;DHT22;18306;40.960;14.836;2022-12-10T15:49:52;15.90;99.90
31725;DHT22;18306;40.960;14.836;2022-12-10T15:52:25;15.90;99.90
31725;DHT22;18306;40.960;14.836;2022-12-10T15:54:55;15.80;99.90
31725;DHT22;18306;40.960;14.836;2022-12-10T15:57:31;15.90;99.90
31725;DHT22;18306;40.960;14.836;2022-12-10T16:00:02;16.00;99.90
31725;DHT22;18306;40.960;14.836;2022-12-10T16:02:45;15.90;99.90
31725;DHT22;18306;40.960;14.836;2022-12-10T16:07:45;16.00;99.90
31725;DHT22;18306;40.960;14.836;2022-12-10T16:10:16;16.10;99.90
31725;DHT22;18306;40.960;14.836;2022-12-10T16:12:49;16.20;99.90
31725;DHT22;18306;40.960;14.836;2022-12-10T16:15:33;16.30;99.90
31725;DHT22;18306;40.960;14.836;2022-12-10T16:18:09;16.10;99.90
31725;DHT22;18306;40.960;14.836;2022-12-10T16:20:38;16.30;99.90
31725;DHT22;18306;40.960;14.836;2022-12-10T16:23:06;16.40;99.90
31725;DHT22;18306;40.960;14.836;2022-12-10T16:25:35;16.40;99.90
31725;DHT22;18306;40.960;14.836;2022-12-10T16:28:05;16.60;99.90
31725;DHT22;18306;40.960;14.836;2022-12-10T16:30:40;16.60;99.90
31725;DHT22;18306;40.960;14.836;2022-12-10T16:33:09;16.50;99.90
31725;DHT22;18306;40.960;14.836;2022-12-10T16:35:37;16.30;99.90
31725;DHT22;18306;40.960;14.836;2022-12-10T16:38:06;16.10;99.90
31725;DHT22;18306;40.960;14.836;2022-12-10T16:40:34;15.90;99.90
31725;DHT22;18306;40.960;14.836;2022-12-10T16:43:22;15.70;99.90
31725;DHT22;18306;40.960;14.836;2022-12-10T16:45:51;15.60;99.90
31725;DHT22;18306;40.960;14.836;2022-12-10T16:48:20;15.30;99.90
31725;DHT22;18306;40.960;14.836;2022-12-10T16:50:50;15.30;99.90
31725;DHT22;18306;40.960;14.836;2022-12-10T16:53:27;15.20;99.90
31725;DHT22;18306;40.960;14.836;2022-12-10T16:56:01;15.20;99.90
31725;DHT22;18306;40.960;14.836;2022-12-10T16:58:39;15.20;99.90
31725;DHT22;18306;40.960;14.836;2022-12-10T17:01:22;15.30;99.90
31725;DHT22;18306;40.960;14.836;2022-12-10T17:03:51;15.40;99.90
31725;DHT22;18306;40.960;14.836;2022-12-10T17:06:20;15.50;99.90
31725;DHT22;18306;40.960;14.836;2022-12-10T17:08:49;15.60;99.90
31725;DHT22;18306;40.960;14.836;2022-12-10T17:11:24;15.70;99.90
31725;DHT22;18306;40.960;14.836;2022-12-10T17:14:32;15.90;99.90
31725;DHT22;18306;40.960;14.836;2022-12-10T17:17:01;16.10;99.90
31725;DHT22;18306;40.960;14.836;2022-12-10T17:19:34;16.10;99.90
31725;DHT22;18306;40.960;14.836;2022-12-10T17:22:02;16.00;99.90
31725;DHT22;18306;40.960;14.836;2022-12-10T17:24:29;15.90;99.90
31725;DHT22;18306;40.960;14.836;2022-12-10T17:27:20;16.00;99.90
31725;DHT22;18306;40.960;14.836;2022-12-10T17:29:47;16.10;99.90
31725;DHT22;18306;40.960;14.836;2022-12-10T17:32:21;16.10;99.90
31725;DHT22;18306;40.960;14.836;2022-12-10T17:34:52;16.20;99.90
31725;DHT22;18306;40.960;14.836;2022-12-10T17:37:20;16.20;99.90
31725;DHT22;18306;40.960;14.836;2022-12-10T17:39:49;16.30;99.90
31725;DHT22;18306;40.960;14.836;2022-12-10T17:42:16;16.10;99.90
31725;DHT22;18306;40.960;14.836;2022-12-10T17:44:43;16.20;99.90